Time;durP1;ratioP1;P1;durP2;ratioP2;P2;SDS_P1;SDS_P2;PMS_P1;PMS_P2;Temp;Humidity;BMP_temperature;BMP_pressure;BME280_temperature;BME280_humidity;BME280_pressure;Samples;Min_cycle;Max_cycle;Signal;HPM_P1;HPM_P2
2024/04/09 00:00:15;;;;;;;8.38;4.57;;;13.60;68.00;;;;;;5416450;26;20007;-75
2024/04/09 00:02:43;;;;;;;6.90;4.70;;;13.50;68.30;;;;;;5429008;26;20007;-75
2024/04/09 00:05:11;;;;;;;8.20;4.43;;;13.30;68.70;;;;;;5405945;26;20013;-77
2024/04/09 00:07:39;;;;;;;8.25;4.88;;;13.30;69.10;;;;;;5416332;26;20003;-77
2024/04/09 00:10:07;;;;;;;9.80;5.45;;;13.40;68.80;;;;;;5438492;26;20013;-76
2024/04/09 00:12:35;;;;;;;9.70;5.50;;;13.80;68.30;;;;;;5436727;26;19995;-76
2024/04/09 00:15:09;;;;;;;9.05;5.47;;;14.20;67.20;;;;;;5419883;26;20018;-76
2024/04/09 00:17:55;;;;;;;11.65;5.38;;;14.20;66.30;;;;;;5418082;26;20326;-76
2024/04/09 00:20:26;;;;;;;9.10;4.88;;;14.20;66.20;;;;;;5422528;26;20003;-75
2024/04/09 00:22:59;;;;;;;;;;;13.90;67.10;;;;;;5419335;26;20039;-76
2024/04/09 00:25:27;;;;;;;6.95;4.97;;;14.10;66.90;;;;;;5394874;26;19924;-76
2024/04/09 00:27:54;;;;;;;13.85;5.90;;;14.00;66.70;;;;;;5391599;26;19999;-75
2024/04/09 00:30:22;;;;;;;7.18;5.25;;;14.00;67.00;;;;;;5448734;26;20027;-75
2024/04/09 00:32:51;;;;;;;7.20;5.60;;;14.10;66.80;;;;;;5448528;26;19999;-75
2024/04/09 00:35:21;;;;;;;9.10;4.93;;;14.40;66.50;;;;;;5412817;26;20009;-75
2024/04/09 00:37:51;;;;;;;7.88;5.13;;;14.60;65.50;;;;;;5423149;26;20004;-75
2024/04/09 00:40:19;;;;;;;;;;;14.60;66.10;;;;;;5448241;26;20018;-78
2024/04/09 00:42:50;;;;;;;7.68;5.28;;;14.70;65.70;;;;;;5443356;26;19951;-77
2024/04/09 00:45:19;;;;;;;12.48;5.57;;;14.80;66.00;;;;;;5444117;26;20007;-77
2024/04/09 00:47:46;;;;;;;8.13;5.18;;;14.80;65.10;;;;;;5427681;26;20011;-77
2024/04/09 00:50:16;;;;;;;9.75;5.25;;;14.90;65.50;;;;;;5434753;26;20014;-75
2024/04/09 00:52:45;;;;;;;7.20;5.00;;;14.90;65.80;;;;;;5450114;26;20449;-75
2024/04/09 00:55:15;;;;;;;8.48;4.95;;;14.50;65.20;;;;;;5431854;26;20011;-76
2024/04/09 00:57:48;;;;;;;8.60;5.25;;;14.10;67.00;;;;;;5449454;26;20026;-74
2024/04/09 01:00:15;;;;;;;7.30;4.95;;;14.50;66.50;;;;;;5448571;26;20323;-76
2024/04/09 01:02:48;;;;;;;10.57;5.10;;;14.50;66.10;;;;;;5428440;26;20003;-76
2024/04/09 01:05:17;;;;;;;7.55;5.10;;;14.60;66.30;;;;;;5429615;26;20016;-76
2024/04/09 01:07:45;;;;;;;6.82;4.70;;;14.60;66.10;;;;;;5417132;26;20003;-76
2024/04/09 01:10:12;;;;;;;6.93;4.78;;;14.50;65.80;;;;;;5429649;26;20003;-76
2024/04/09 01:12:39;;;;;;;8.63;5.50;;;14.60;66.30;;;;;;5448033;26;20031;-76
2024/04/09 01:15:10;;;;;;;11.07;5.32;;;14.60;66.50;;;;;;5417737;26;20035;-75
2024/04/09 01:17:38;;;;;;;8.07;5.25;;;14.70;66.60;;;;;;5437454;26;20040;-74
2024/04/09 01:20:07;;;;;;;10.15;5.03;;;14.70;65.90;;;;;;5419117;26;20013;-76
2024/04/09 01:22:36;;;;;;;11.02;5.38;;;14.70;66.40;;;;;;5448973;26;20327;-75
2024/04/09 01:25:04;;;;;;;6.90;4.75;;;14.70;66.30;;;;;;5415097;26;20323;-75
2024/04/09 01:27:33;;;;;;;7.63;5.78;;;14.70;66.30;;;;;;5446974;26;20004;-76
2024/04/09 01:30:05;;;;;;;8.00;5.30;;;14.70;66.70;;;;;;5414407;26;20014;-76
2024/04/09 01:32:33;;;;;;;9.18;5.45;;;14.70;66.90;;;;;;5427154;26;20047;-76
2024/04/09 01:35:00;;;;;;;10.45;5.78;;;14.60;67.70;;;;;;5447598;26;20383;-75
2024/04/09 01:37:28;;;;;;;10.85;5.47;;;14.60;68.50;;;;;;5412657;26;20036;-75
2024/04/09 01:39:55;;;;;;;12.75;5.75;;;14.70;68.70;;;;;;5417239;26;20000;-76
2024/04/09 01:42:22;;;;;;;8.57;5.75;;;14.80;69.30;;;;;;5419588;26;20002;-75
2024/04/09 01:44:50;;;;;;;7.43;5.45;;;14.70;69.80;;;;;;5472873;26;20446;-75
2024/04/09 01:47:17;;;;;;;15.43;6.22;;;14.70;70.00;;;;;;5427713;26;20029;-74
2024/04/09 01:49:46;;;;;;;11.35;6.07;;;14.60;70.00;;;;;;5438209;26;20010;-74
2024/04/09 01:52:14;;;;;;;8.30;5.40;;;14.70;70.50;;;;;;5432073;26;19999;-75
2024/04/09 01:54:45;;;;;;;13.88;6.15;;;14.60;70.00;;;;;;5415997;26;20000;-75
2024/04/09 01:57:12;;;;;;;9.63;5.75;;;14.60;70.20;;;;;;5416633;26;19999;-75
2024/04/09 01:59:41;;;;;;;14.27;6.50;;;14.60;70.70;;;;;;5437575;26;20035;-75
2024/04/09 02:02:13;;;;;;;8.63;5.68;;;14.40;70.70;;;;;;5433336;26;20043;-76
2024/04/09 02:04:40;;;;;;;10.38;6.18;;;14.40;71.20;;;;;;5426424;26;19999;-74
2024/04/09 02:07:08;;;;;;;8.57;5.75;;;14.30;71.40;;;;;;5444114;26;20030;-75
2024/04/09 02:09:35;;;;;;;15.35;6.55;;;14.40;70.60;;;;;;5427901;26;20026;-75
2024/04/09 02:12:03;;;;;;;8.88;5.28;;;14.30;70.60;;;;;;5448023;26;20003;-75
2024/04/09 02:14:31;;;;;;;11.23;6.03;;;14.30;70.70;;;;;;5423304;26;20483;-75
2024/04/09 02:16:59;;;;;;;9.40;5.85;;;14.30;70.70;;;;;;5446304;26;20307;-74
2024/04/09 02:19:26;;;;;;;13.55;5.70;;;14.20;70.90;;;;;;5439426;26;20081;-74
2024/04/09 02:21:54;;;;;;;10.70;5.38;;;14.10;71.20;;;;;;5458043;26;20010;-76
2024/04/09 02:24:22;;;;;;;13.10;5.75;;;14.10;71.10;;;;;;5441481;26;20003;-75
2024/04/09 02:26:49;;;;;;;11.13;5.65;;;14.10;71.40;;;;;;5399011;26;20335;-75
2024/04/09 02:29:17;;;;;;;8.38;5.13;;;14.10;71.40;;;;;;5418082;26;20031;-75
2024/04/09 02:31:44;;;;;;;12.40;5.63;;;14.00;71.10;;;;;;5436666;26;20261;-75
2024/04/09 02:34:11;;;;;;;8.95;5.10;;;14.10;71.50;;;;;;5455710;26;20026;-76
2024/04/09 02:36:39;;;;;;;10.10;5.55;;;14.10;71.60;;;;;;5425106;26;20004;-75
2024/04/09 02:39:08;;;;;;;9.55;5.07;;;14.20;71.50;;;;;;5449182;26;20014;-75
2024/04/09 02:41:39;;;;;;;11.73;5.28;;;14.10;71.80;;;;;;5424746;26;20003;-74
2024/04/09 02:44:07;;;;;;;13.20;6.32;;;14.00;71.90;;;;;;5448920;26;20014;-75
2024/04/09 02:46:35;;;;;;;8.20;4.80;;;14.00;72.10;;;;;;5429611;26;20044;-75
2024/04/09 02:49:03;;;;;;;9.95;5.30;;;13.90;71.90;;;;;;5449324;26;20029;-75
2024/04/09 02:51:30;;;;;;;10.93;5.43;;;13.80;72.30;;;;;;5446273;26;20007;-74
2024/04/09 02:53:58;;;;;;;8.65;4.68;;;13.90;72.60;;;;;;5435443;26;20022;-75
2024/04/09 02:56:26;;;;;;;11.68;4.75;;;13.80;71.70;;;;;;5425045;26;20075;-76
2024/04/09 02:58:53;;;;;;;8.90;5.03;;;13.60;72.10;;;;;;5435680;26;20021;-74
2024/04/09 03:01:21;;;;;;;9.90;5.10;;;13.60;72.60;;;;;;5446261;26;20003;-75
2024/04/09 03:03:49;;;;;;;10.45;5.40;;;13.50;72.90;;;;;;5449314;26;20007;-74
2024/04/09 03:06:17;;;;;;;8.27;5.85;;;13.50;72.90;;;;;;5451193;26;20080;-75
2024/04/09 03:08:44;;;;;;;9.95;5.45;;;13.50;73.20;;;;;;5447785;26;20026;-74
2024/04/09 03:11:17;;;;;;;7.82;5.07;;;13.50;73.30;;;;;;5413014;26;20017;-75
2024/04/09 03:13:49;;;;;;;11.45;5.70;;;13.60;73.30;;;;;;5443558;26;20018;-72
2024/04/09 03:16:18;;;;;;;7.72;5.55;;;13.60;73.10;;;;;;5429220;26;20454;-75
2024/04/09 03:18:47;;;;;;;11.70;6.13;;;13.40;73.40;;;;;;5434799;26;20000;-74
2024/04/09 03:21:15;;;;;;;11.68;5.78;;;13.40;73.60;;;;;;5413610;26;20342;-74
2024/04/09 03:23:42;;;;;;;13.60;6.10;;;13.40;73.80;;;;;;5423498;26;19996;-74
2024/04/09 03:26:11;;;;;;;12.02;5.90;;;13.50;73.80;;;;;;5448332;26;20347;-74
2024/04/09 03:28:38;;;;;;;10.05;6.28;;;13.40;73.80;;;;;;5440502;26;20011;-73
2024/04/09 03:31:07;;;;;;;13.05;6.10;;;13.40;74.00;;;;;;5443103;26;19999;-74
2024/04/09 03:33:35;;;;;;;9.55;6.00;;;13.30;74.50;;;;;;5424818;26;20006;-74
2024/04/09 03:36:10;;;;;;;9.10;5.80;;;13.10;74.80;;;;;;5402241;26;20011;-75
2024/04/09 03:38:38;;;;;;;11.07;5.93;;;13.10;75.00;;;;;;5417676;26;20319;-75
2024/04/09 03:41:06;;;;;;;11.75;6.25;;;13.00;75.30;;;;;;5416675;26;20659;-73
2024/04/09 03:43:34;;;;;;;13.95;5.80;;;12.80;75.80;;;;;;5449816;26;20319;-74
2024/04/09 03:46:06;;;;;;;11.18;6.25;;;12.90;75.90;;;;;;5421580;26;20010;-74
2024/04/09 03:48:43;;;;;;;8.93;6.05;;;12.80;75.60;;;;;;5421808;26;20010;-74
2024/04/09 03:51:13;;;;;;;10.43;6.68;;;12.80;76.10;;;;;;5418722;26;20466;-73
2024/04/09 03:53:44;;;;;;;15.23;5.78;;;12.80;75.90;;;;;;5416705;26;19995;-72
2024/04/09 03:56:12;;;;;;;11.55;5.50;;;12.70;75.90;;;;;;5477089;26;19998;-73
2024/04/09 03:58:41;;;;;;;9.52;5.55;;;12.80;75.90;;;;;;5430219;26;19999;-75
2024/04/09 04:01:10;;;;;;;9.25;5.82;;;12.90;75.80;;;;;;5442867;26;20003;-74
2024/04/09 04:03:40;;;;;;;11.93;5.65;;;12.70;75.80;;;;;;5431514;26;20461;-75
2024/04/09 04:06:09;;;;;;;10.35;6.00;;;12.70;76.10;;;;;;5461017;26;20043;-74
2024/04/09 04:08:41;;;;;;;8.18;5.50;;;12.80;75.80;;;;;;5451966;26;20340;-75
2024/04/09 04:11:11;;;;;;;14.05;5.45;;;12.80;75.80;;;;;;5427370;26;20013;-74
2024/04/09 04:13:39;;;;;;;6.95;6.20;;;12.80;75.70;;;;;;5431802;26;20003;-74
2024/04/09 04:16:13;;;;;;;10.23;6.03;;;12.70;75.40;;;;;;5433587;26;20319;-75
2024/04/09 04:18:46;;;;;;;9.77;4.93;;;12.70;75.60;;;;;;5387118;26;20000;-75
2024/04/09 04:21:20;;;;;;;10.52;5.60;;;12.80;75.50;;;;;;5431594;26;20020;-74
2024/04/09 04:23:59;;;;;;;8.70;5.20;;;13.00;75.10;;;;;;5399316;26;20469;-75
2024/04/09 04:26:27;;;;;;;8.38;5.75;;;13.00;74.70;;;;;;5421166;26;20079;-73
2024/04/09 04:28:55;;;;;;;8.00;5.15;;;13.10;74.60;;;;;;5420568;26;20426;-75
2024/04/09 04:31:24;;;;;;;9.13;5.40;;;13.10;74.20;;;;;;5399229;26;20027;-75
2024/04/09 04:33:51;;;;;;;8.50;5.40;;;12.90;75.10;;;;;;5429789;26;19998;-74
2024/04/09 04:36:20;;;;;;;15.75;6.43;;;12.90;75.10;;;;;;5427711;26;20004;-74
2024/04/09 04:38:48;;;;;;;8.77;5.50;;;12.80;75.00;;;;;;5431181;26;20010;-74
2024/04/09 04:41:16;;;;;;;9.95;6.28;;;12.90;74.70;;;;;;5445160;26;20380;-74
2024/04/09 04:43:44;;;;;;;14.05;5.63;;;12.90;74.20;;;;;;5445636;26;20003;-74
2024/04/09 04:46:11;;;;;;;13.90;5.88;;;12.90;74.40;;;;;;5450051;26;19999;-75
2024/04/09 04:48:39;;;;;;;10.57;5.80;;;12.90;74.50;;;;;;5437477;26;20339;-75
2024/04/09 04:51:08;;;;;;;10.35;5.85;;;12.80;74.50;;;;;;5439305;26;20099;-74
2024/04/09 04:53:36;;;;;;;12.25;5.60;;;12.90;74.40;;;;;;5443663;26;20011;-74
2024/04/09 04:56:04;;;;;;;7.15;5.38;;;12.90;74.40;;;;;;5418222;26;20000;-74
2024/04/09 04:58:31;;;;;;;10.18;6.03;;;12.90;74.30;;;;;;5414384;26;20322;-73
2024/04/09 05:00:59;;;;;;;12.32;6.22;;;13.00;74.40;;;;;;5421169;26;20010;-74
2024/04/09 05:03:26;;;;;;;9.50;5.60;;;13.00;74.40;;;;;;5433524;26;20051;-74
2024/04/09 05:05:54;;;;;;;13.20;6.32;;;13.00;74.40;;;;;;5414542;26;20072;-72
2024/04/09 05:08:22;;;;;;;13.15;6.03;;;13.10;74.30;;;;;;5447138;26;20039;-74
2024/04/09 05:10:49;;;;;;;8.43;6.35;;;13.20;74.30;;;;;;5436109;26;20011;-74
2024/04/09 05:13:18;;;;;;;7.05;5.50;;;13.20;74.10;;;;;;5437390;26;20346;-73
2024/04/09 05:15:46;;;;;;;14.25;6.30;;;13.20;74.20;;;;;;5426742;26;20334;-74
2024/04/09 05:18:14;;;;;;;9.80;6.10;;;13.20;74.50;;;;;;5415935;26;20002;-72
2024/04/09 05:20:42;;;;;;;43.42;26.27;;;13.20;74.70;;;;;;5442977;26;20461;-76
2024/04/09 05:23:10;;;;;;;37.30;22.38;;;13.50;76.00;;;;;;5412356;26;20010;-72
2024/04/09 05:25:38;;;;;;;15.68;11.93;;;13.50;75.00;;;;;;5445704;26;20013;-73
2024/04/09 05:28:05;;;;;;;27.42;15.27;;;13.20;74.70;;;;;;5446770;26;20011;-73
2024/04/09 05:30:33;;;;;;;33.03;20.83;;;13.40;75.40;;;;;;5449249;26;20052;-73
2024/04/09 05:33:00;;;;;;;78.45;46.88;;;13.50;75.50;;;;;;5460796;26;20002;-72
2024/04/09 05:35:28;;;;;;;24.33;14.93;;;13.50;74.60;;;;;;5443319;26;21122;-75
2024/04/09 05:37:55;;;;;;;16.00;10.27;;;13.30;74.30;;;;;;5451119;26;20014;-75
2024/04/09 05:40:23;;;;;;;13.38;9.15;;;13.20;75.60;;;;;;5419935;26;20009;-74
2024/04/09 05:42:50;;;;;;;9.40;6.45;;;13.40;74.70;;;;;;5465421;26;20006;-74
2024/04/09 05:45:23;;;;;;;9.07;6.25;;;13.40;74.10;;;;;;5390945;26;19995;-74
2024/04/09 05:47:51;;;;;;;10.02;6.43;;;13.40;74.10;;;;;;5416605;26;20015;-73
2024/04/09 05:50:18;;;;;;;12.13;6.20;;;13.40;74.10;;;;;;5405890;26;20347;-73
2024/04/09 05:52:46;;;;;;;9.68;5.97;;;13.50;74.20;;;;;;5426020;26;19995;-73
2024/04/09 05:55:13;;;;;;;11.23;5.60;;;13.50;74.40;;;;;;5424228;26;20003;-73
2024/04/09 05:57:41;;;;;;;10.60;5.75;;;13.30;74.60;;;;;;5411419;26;20022;-75
2024/04/09 06:00:11;;;;;;;10.00;6.07;;;13.40;75.00;;;;;;5450004;26;20002;-73
2024/04/09 06:02:44;;;;;;;8.93;5.60;;;13.30;74.80;;;;;;5412532;26;20019;-75
2024/04/09 06:05:11;;;;;;;28.17;15.07;;;13.30;75.10;;;;;;5404180;26;20007;-72
2024/04/09 06:07:39;;;;;;;101.93;56.00;;;13.30;75.10;;;;;;5392606;26;20034;-75
2024/04/09 06:10:06;;;;;;;20.50;15.73;;;13.40;74.90;;;;;;5461268;26;20081;-75
2024/04/09 06:12:34;;;;;;;9.80;7.38;;;13.50;74.80;;;;;;5432946;26;20017;-75
2024/04/09 06:15:02;;;;;;;11.63;5.70;;;13.50;74.50;;;;;;5409736;26;20031;-75
2024/04/09 06:17:30;;;;;;;10.63;5.65;;;13.50;75.10;;;;;;5417178;26;20992;-75
2024/04/09 06:20:00;;;;;;;7.57;5.55;;;13.60;74.70;;;;;;5450553;26;20002;-75
2024/04/09 06:22:28;;;;;;;7.88;5.50;;;13.50;74.80;;;;;;5401429;26;20069;-75
2024/04/09 06:24:56;;;;;;;9.05;5.30;;;13.50;75.10;;;;;;5426354;26;20092;-75
2024/04/09 06:27:23;;;;;;;8.43;5.82;;;13.50;75.00;;;;;;5424181;26;20002;-74
2024/04/09 06:29:51;;;;;;;10.90;5.20;;;13.50;75.50;;;;;;5445946;26;20391;-75
2024/04/09 06:32:18;;;;;;;6.80;5.28;;;13.50;76.30;;;;;;5437813;26;20400;-75
2024/04/09 06:34:46;;;;;;;10.35;5.30;;;13.60;76.20;;;;;;5397072;26;20038;-74
2024/04/09 06:37:13;;;;;;;7.63;4.82;;;13.60;75.90;;;;;;5434466;26;20032;-75
2024/04/09 06:39:41;;;;;;;17.52;5.60;;;13.60;76.00;;;;;;5444799;26;20078;-75
2024/04/09 06:42:08;;;;;;;8.95;5.18;;;13.70;76.10;;;;;;5427236;26;20004;-75
2024/04/09 06:44:36;;;;;;;10.38;5.30;;;13.80;76.60;;;;;;5431083;26;19995;-75
2024/04/09 06:47:05;;;;;;;7.57;5.28;;;13.90;76.50;;;;;;5427605;26;20017;-75
2024/04/09 06:49:32;;;;;;;18.67;5.95;;;14.00;76.90;;;;;;5418789;26;20071;-75
2024/04/09 06:52:00;;;;;;;11.57;6.03;;;14.10;75.80;;;;;;5443222;26;20010;-75
2024/04/09 06:54:28;;;;;;;10.18;5.30;;;14.20;75.90;;;;;;5415590;26;20013;-76
2024/04/09 06:56:59;;;;;;;7.03;4.90;;;14.10;75.80;;;;;;5430269;26;20013;-75
2024/04/09 06:59:27;;;;;;;7.60;5.25;;;14.00;75.90;;;;;;5408674;26;20319;-76
2024/04/09 07:01:54;;;;;;;9.48;5.18;;;14.20;75.40;;;;;;5439236;26;20003;-75
2024/04/09 07:04:27;;;;;;;9.35;5.20;;;14.30;74.90;;;;;;5425282;26;20388;-74
2024/04/09 07:06:55;;;;;;;10.32;4.82;;;14.40;75.00;;;;;;5432371;26;20014;-74
2024/04/09 07:09:22;;;;;;;9.20;5.05;;;14.50;74.10;;;;;;5439600;26;20443;-75
2024/04/09 07:11:49;;;;;;;8.07;4.75;;;14.50;74.60;;;;;;5425736;26;19998;-75
2024/04/09 07:14:17;;;;;;;8.00;5.10;;;14.60;73.90;;;;;;5413583;26;20032;-76
2024/04/09 07:16:45;;;;;;;6.97;4.97;;;14.60;73.90;;;;;;5435945;26;20013;-75
2024/04/09 07:19:13;;;;;;;8.82;5.13;;;14.70;73.90;;;;;;5443903;26;20019;-75
2024/04/09 07:21:41;;;;;;;9.32;5.18;;;14.80;74.10;;;;;;5437020;26;20016;-75
2024/04/09 07:24:09;;;;;;;10.82;4.97;;;14.90;73.80;;;;;;5410432;26;20003;-75
2024/04/09 07:26:37;;;;;;;7.38;4.70;;;14.90;73.80;;;;;;5443164;26;20014;-75
2024/04/09 07:29:05;;;;;;;7.35;4.45;;;15.00;73.00;;;;;;5451165;26;20014;-76
2024/04/09 07:31:33;;;;;;;10.73;4.82;;;15.20;72.80;;;;;;5440656;26;20318;-75
2024/04/09 07:34:01;;;;;;;8.77;4.53;;;15.20;72.80;;;;;;5415975;26;20604;-76
2024/04/09 07:36:28;;;;;;;7.68;4.40;;;15.30;72.20;;;;;;5416034;26;20003;-76
2024/04/09 07:38:56;;;;;;;9.25;4.22;;;15.30;72.10;;;;;;5464030;26;20347;-75
2024/04/09 07:41:25;;;;;;;8.25;4.20;;;15.40;72.80;;;;;;5404027;26;20005;-75
2024/04/09 07:43:55;;;;;;;8.38;4.20;;;15.40;72.50;;;;;;5436692;26;20003;-76
2024/04/09 07:46:24;;;;;;;8.77;4.35;;;15.50;73.20;;;;;;5394672;26;20012;-77
2024/04/09 07:48:52;;;;;;;7.18;4.60;;;15.60;72.90;;;;;;5396119;26;20000;-75
2024/04/09 07:51:19;;;;;;;15.75;4.80;;;15.80;73.10;;;;;;5402929;26;20003;-75
2024/04/09 07:53:47;;;;;;;12.40;5.63;;;15.90;72.90;;;;;;5432081;26;20000;-74
2024/04/09 07:56:14;;;;;;;8.60;4.85;;;16.00;72.10;;;;;;5443886;26;20335;-77
2024/04/09 07:58:42;;;;;;;7.22;5.07;;;16.10;72.10;;;;;;5430212;26;20422;-76
2024/04/09 08:01:10;;;;;;;6.88;4.57;;;16.30;72.10;;;;;;5417801;26;20032;-75
2024/04/09 08:03:38;;;;;;;10.93;3.78;;;16.50;71.20;;;;;;5419166;26;20011;-76
2024/04/09 08:06:10;;;;;;;8.60;3.63;;;16.60;69.70;;;;;;5449504;26;20372;-74
2024/04/09 08:08:38;;;;;;;9.10;4.10;;;16.50;69.30;;;;;;5438739;26;20069;-74
2024/04/09 08:11:10;;;;;;;7.15;3.75;;;16.60;69.80;;;;;;5445319;26;20365;-75
2024/04/09 08:13:38;;;;;;;7.13;3.90;;;16.70;70.00;;;;;;5417637;26;20030;-75
2024/04/09 08:16:06;;;;;;;7.35;3.78;;;16.90;70.10;;;;;;5436943;26;20014;-73
2024/04/09 08:18:34;;;;;;;7.72;4.15;;;17.00;68.70;;;;;;5445892;26;20006;-73
2024/04/09 08:21:02;;;;;;;9.80;4.20;;;17.10;68.20;;;;;;5408445;26;20031;-73
2024/04/09 08:23:30;;;;;;;6.07;3.80;;;17.10;67.60;;;;;;5444559;26;19999;-74
2024/04/09 08:25:58;;;;;;;7.55;3.88;;;17.20;68.50;;;;;;5424852;26;20078;-74
2024/04/09 08:28:26;;;;;;;7.18;3.75;;;17.50;68.80;;;;;;5431003;26;20002;-74
2024/04/09 08:30:54;;;;;;;7.63;3.72;;;17.50;67.70;;;;;;5449732;26;20003;-73
2024/04/09 08:33:22;;;;;;;6.20;4.00;;;17.60;66.00;;;;;;5411104;26;20020;-73
2024/04/09 08:35:50;;;;;;;7.03;3.72;;;17.80;66.60;;;;;;5430849;26;20022;-75
2024/04/09 08:38:19;;;;;;;11.90;4.18;;;18.10;66.90;;;;;;5433635;26;20014;-74
2024/04/09 08:40:47;;;;;;;6.68;3.92;;;18.40;65.00;;;;;;5450906;26;20322;-75
2024/04/09 08:43:17;;;;;;;6.40;4.13;;;18.50;65.50;;;;;;5417361;26;20015;-74
2024/04/09 08:45:46;;;;;;;4.95;3.60;;;18.40;65.40;;;;;;5415067;26;20076;-75
2024/04/09 08:48:16;;;;;;;5.50;3.45;;;18.50;65.70;;;;;;5413962;26;20027;-74
2024/04/09 08:50:52;;;;;;;;;;;18.70;64.50;;;;;;5452264;26;20021;-74
2024/04/09 08:53:23;;;;;;;4.63;2.70;;;18.90;63.80;;;;;;5430979;26;19932;-74
2024/04/09 08:55:52;;;;;;;4.97;2.92;;;18.60;62.80;;;;;;5437267;26;20027;-74
2024/04/09 08:58:20;;;;;;;6.18;3.08;;;18.90;64.20;;;;;;5429497;26;20021;-74
2024/04/09 09:00:47;;;;;;;4.63;2.50;;;18.90;63.00;;;;;;5426396;26;20007;-73
2024/04/09 09:03:15;;;;;;;6.70;3.13;;;19.00;63.50;;;;;;5407274;26;20005;-74
2024/04/09 09:05:43;;;;;;;8.15;2.90;;;19.30;63.00;;;;;;5437966;26;20302;-72
2024/04/09 09:08:10;;;;;;;4.78;2.75;;;19.50;62.80;;;;;;5418802;26;20006;-74
2024/04/09 09:10:38;;;;;;;3.28;2.33;;;19.70;62.70;;;;;;5433223;26;19999;-74
2024/04/09 09:13:05;;;;;;;3.72;2.50;;;19.70;62.50;;;;;;5425580;26;19999;-74
2024/04/09 09:15:33;;;;;;;3.42;2.50;;;19.90;61.70;;;;;;5409541;26;20076;-74
2024/04/09 09:18:02;;;;;;;6.65;3.10;;;20.00;61.10;;;;;;5426741;26;20073;-74
2024/04/09 09:20:30;;;;;;;6.10;2.40;;;20.00;61.30;;;;;;5433604;26;20423;-74
2024/04/09 09:22:59;;;;;;;5.55;2.83;;;20.10;59.40;;;;;;5426530;26;20006;-75
2024/04/09 09:25:27;;;;;;;4.30;2.20;;;20.20;59.70;;;;;;5448702;26;20315;-75
2024/04/09 09:28:08;;;;;;;4.15;2.50;;;20.30;59.30;;;;;;5413774;26;20003;-75
2024/04/09 09:30:40;;;;;;;3.28;2.28;;;20.50;58.90;;;;;;5443331;26;20004;-76
2024/04/09 09:33:19;;;;;;;6.80;2.65;;;20.40;58.30;;;;;;5413102;26;20010;-79
2024/04/09 09:35:48;;;;;;;5.22;2.17;;;20.60;57.80;;;;;;5441951;26;20312;-77
2024/04/09 09:38:21;;;;;;;4.60;2.28;;;20.60;57.90;;;;;;5394030;26;20000;-75
2024/04/09 09:40:50;;;;;;;6.38;2.33;;;20.50;57.00;;;;;;5448510;26;20013;-76
2024/04/09 09:43:22;;;;;;;5.30;2.33;;;20.70;57.30;;;;;;5414408;26;20007;-75
2024/04/09 09:45:50;;;;;;;5.97;3.00;;;21.10;56.70;;;;;;5448854;26;20334;-76
2024/04/09 09:48:20;;;;;;;13.07;3.15;;;21.20;57.00;;;;;;5441600;26;20487;-75
2024/04/09 09:50:48;;;;;;;;;;;21.50;56.40;;;;;;5443596;26;20000;-76
2024/04/09 09:53:19;;;;;;;6.47;2.10;;;21.60;55.10;;;;;;5444543;26;19932;-76
2024/04/09 09:55:53;;;;;;;9.23;2.47;;;21.60;53.70;;;;;;5426103;26;19999;-77
2024/04/09 09:58:25;;;;;;;6.10;2.83;;;21.70;53.90;;;;;;5398692;26;20007;-77
2024/04/09 10:00:53;;;;;;;10.00;3.30;;;21.50;51.80;;;;;;5449313;26;20003;-77
2024/04/09 10:03:21;;;;;;;8.48;3.08;;;21.70;54.30;;;;;;5448109;26;20341;-77
2024/04/09 10:05:51;;;;;;;4.18;2.60;;;21.80;54.10;;;;;;5413870;26;20110;-78
2024/04/09 10:08:18;;;;;;;5.88;3.00;;;21.80;53.90;;;;;;5400452;26;19999;-77
2024/04/09 10:10:49;;;;;;;7.32;3.30;;;22.00;54.40;;;;;;5413679;26;20004;-77
2024/04/09 10:13:18;;;;;;;;;;;22.20;54.60;;;;;;5450567;26;20032;-76
2024/04/09 10:15:48;;;;;;;7.05;3.20;;;22.30;54.40;;;;;;5408053;26;19932;-77
2024/04/09 10:18:33;;;;;;;6.78;3.90;;;22.40;54.70;;;;;;5406160;26;20012;-77
2024/04/09 10:21:03;;;;;;;7.10;4.53;;;22.50;55.20;;;;;;5402076;26;20067;-76
2024/04/09 10:23:36;;;;;;;6.90;4.63;;;22.70;54.30;;;;;;5415638;26;20008;-75
2024/04/09 10:26:08;;;;;;;6.43;3.70;;;22.40;52.80;;;;;;5387347;26;20334;-78
2024/04/09 10:28:37;;;;;;;7.32;3.88;;;22.50;53.90;;;;;;5435552;26;20007;-75
2024/04/09 10:31:09;;;;;;;7.95;4.22;;;22.60;54.10;;;;;;5417425;26;20010;-77
2024/04/09 10:33:38;;;;;;;10.07;4.50;;;22.70;54.40;;;;;;5442752;26;20404;-76
2024/04/09 10:36:11;;;;;;;9.18;3.90;;;22.90;53.80;;;;;;5411067;26;19996;-76
2024/04/09 10:38:43;;;;;;;8.75;3.83;;;22.90;52.50;;;;;;5406831;26;20048;-75
2024/04/09 10:41:11;;;;;;;5.30;3.25;;;23.00;53.00;;;;;;5384836;26;20087;-75
2024/04/09 10:43:42;;;;;;;10.07;3.40;;;23.10;52.50;;;;;;5414696;26;20057;-76
2024/04/09 10:46:10;;;;;;;6.60;3.47;;;23.20;52.90;;;;;;5422177;26;20015;-77
2024/04/09 10:48:43;;;;;;;5.03;2.92;;;23.50;53.30;;;;;;5424388;26;20016;-74
2024/04/09 10:51:12;;;;;;;;;;;23.50;51.70;;;;;;5437995;26;20077;-75
2024/04/09 10:53:40;;;;;;;9.27;3.28;;;23.50;51.20;;;;;;5433032;26;20295;-75
2024/04/09 10:56:07;;;;;;;6.72;3.20;;;23.50;51.20;;;;;;5436537;26;20384;-75
2024/04/09 10:58:39;;;;;;;5.53;2.80;;;23.60;51.80;;;;;;5429651;26;20010;-75
2024/04/09 11:01:14;;;;;;;5.97;3.33;;;23.90;51.70;;;;;;5419333;26;21701;-76
2024/04/09 11:03:42;;;;;;;4.90;2.80;;;23.90;47.10;;;;;;5427857;26;20035;-75
2024/04/09 11:06:14;;;;;;;6.47;3.22;;;24.10;48.50;;;;;;5417958;26;20015;-76
2024/04/09 11:08:42;;;;;;;4.97;2.95;;;24.00;49.00;;;;;;5416571;26;20338;-76
2024/04/09 11:11:09;;;;;;;8.45;2.50;;;24.40;49.50;;;;;;5419264;26;20333;-76
2024/04/09 11:13:38;;;;;;;5.68;2.80;;;24.50;50.40;;;;;;5427348;26;20079;-79
2024/04/09 11:16:16;;;;;;;8.43;2.55;;;25.00;51.10;;;;;;5416150;26;20417;-76
2024/04/09 11:18:57;;;;;;;7.45;2.75;;;25.80;49.60;;;;;;5443474;26;20040;-76
2024/04/09 11:21:28;;;;;;;7.28;2.55;;;26.40;49.10;;;;;;5416834;26;20046;-75
2024/04/09 11:23:56;;;;;;;4.28;2.17;;;26.60;46.60;;;;;;5431862;26;20079;-76
2024/04/09 11:26:25;;;;;;;4.07;2.15;;;26.60;46.90;;;;;;5418029;26;19999;-76
2024/04/09 11:28:52;;;;;;;4.82;2.10;;;26.50;47.70;;;;;;5402772;26;20009;-75
2024/04/09 11:31:23;;;;;;;4.47;2.08;;;26.60;48.50;;;;;;5405194;26;20014;-76
2024/04/09 11:33:51;;;;;;;7.35;3.47;;;26.40;48.00;;;;;;5438304;26;20367;-76
2024/04/09 11:36:19;;;;;;;5.78;2.28;;;26.50;48.50;;;;;;5448460;26;20334;-76
2024/04/09 11:38:58;;;;;;;7.38;1.88;;;27.20;47.90;;;;;;5433393;26;20002;-76
2024/04/09 11:41:26;;;;;;;9.45;2.10;;;27.80;46.90;;;;;;5414400;26;19999;-75
2024/04/09 11:43:58;;;;;;;4.60;1.60;;;27.50;46.90;;;;;;5400477;26;20000;-76
2024/04/09 11:46:26;;;;;;;5.75;2.05;;;26.80;46.80;;;;;;5385437;26;19999;-76
2024/04/09 11:48:55;;;;;;;6.20;1.88;;;26.80;47.10;;;;;;5440710;26;20006;-76
2024/04/09 11:51:29;;;;;;;7.40;1.83;;;26.50;46.00;;;;;;5415359;26;20006;-77
2024/04/09 11:53:56;;;;;;;6.93;2.20;;;26.70;46.80;;;;;;5412094;26;20000;-79
2024/04/09 11:56:24;;;;;;;3.88;1.90;;;26.80;47.10;;;;;;5422587;26;19999;-78
2024/04/09 11:58:51;;;;;;;4.10;1.83;;;27.00;47.70;;;;;;5414441;26;20007;-76
2024/04/09 12:01:19;;;;;;;3.70;2.00;;;27.10;47.20;;;;;;5426727;26;20026;-76
2024/04/09 12:03:47;;;;;;;3.40;1.67;;;27.40;47.10;;;;;;5419434;26;20071;-76
2024/04/09 12:06:14;;;;;;;5.25;1.83;;;27.40;47.40;;;;;;5420071;26;20315;-76
2024/04/09 12:08:42;;;;;;;6.60;1.65;;;27.60;46.80;;;;;;5446204;26;20011;-75
2024/04/09 12:11:09;;;;;;;4.70;1.58;;;27.70;46.30;;;;;;5414872;26;20031;-76
2024/04/09 12:13:38;;;;;;;3.67;1.63;;;27.30;45.90;;;;;;5449903;26;20015;-74
2024/04/09 12:16:07;;;;;;;5.00;2.25;;;27.50;46.00;;;;;;5428755;26;20004;-76
2024/04/09 12:18:35;;;;;;;6.80;2.70;;;27.70;47.10;;;;;;5416540;26;20003;-74
2024/04/09 12:21:03;;;;;;;3.75;1.80;;;27.50;45.30;;;;;;5416166;26;20363;-76
2024/04/09 12:23:31;;;;;;;4.45;1.67;;;27.50;45.90;;;;;;5415875;26;20044;-75
2024/04/09 12:25:59;;;;;;;4.07;1.70;;;27.60;44.90;;;;;;5415107;26;20008;-75
2024/04/09 12:28:26;;;;;;;3.78;1.45;;;27.70;44.60;;;;;;5415825;26;20040;-76
2024/04/09 12:30:54;;;;;;;5.10;1.80;;;27.70;44.50;;;;;;5441086;26;19999;-76
2024/04/09 12:33:22;;;;;;;6.43;1.80;;;27.70;45.40;;;;;;5435670;26;20002;-76
2024/04/09 12:35:49;;;;;;;5.25;2.10;;;28.30;46.40;;;;;;5437376;26;20028;-77
2024/04/09 12:38:17;;;;;;;4.35;1.85;;;28.70;45.40;;;;;;5414604;26;20334;-76
2024/04/09 12:40:44;;;;;;;3.10;1.33;;;28.90;44.20;;;;;;5424695;26;19999;-76
2024/04/09 12:43:11;;;;;;;6.97;1.60;;;28.90;42.80;;;;;;5441140;26;20027;-76
2024/04/09 12:45:39;;;;;;;3.10;1.50;;;29.10;43.00;;;;;;5434806;26;20496;-76
2024/04/09 12:48:06;;;;;;;3.53;1.67;;;28.70;43.00;;;;;;5415612;26;20194;-76
2024/04/09 12:50:34;;;;;;;4.47;1.60;;;28.80;41.60;;;;;;5386007;26;20320;-75
2024/04/09 12:53:02;;;;;;;3.90;1.60;;;29.60;42.60;;;;;;5438719;26;20315;-76